Pagrindinis puslapis
METAR-TAF:

METAR-TAF

Oro uostai :

Kaduna, Nigerija

platuma: 10-36N, ilguma: 007-27E, Aukštis: 645 m

METAR: trūkstamas

Laikas: 03:56 (02:56 UTC)

Prognozė

Ataskaita buvo paskelbta 3 valandos ir 56 minutes, ne 23:00 UTC
Prognozė galioja nuo 22 metu 00 UTC su 23 metu 06 UTC
Vėjas 2 kt nuo kintamojo kryptimis
Matomumas 10 km arba daugiau
Mažai debesys ne aukštis 900 ft
Tapsmas
nuo 22 metu 09 UTC su 22 metu 12 UTC
Vėjas 10 kt iš Pietų/Pietvakarių
Su prošvaistėmis ne aukštis 1200 ft
Laikinai
nuo 22 metu 15 UTC su 22 metu 21 UTC
Mažai debesys ne aukštis 1300 ft
Mažai debesys ne aukštis 2000 ft, Liūtiniai kamuoliniai debesys.
perkūnija
Tapsmas
nuo 22 metu 21 UTC su 22 metu 23 UTC
Vėjas 2 kt nuo kintamojo kryptimis
Matomumas 10 km arba daugiau
nėra debesų žemiau 1500 m ir nėra kamuolinių lietaus debesų

TAF: DNKA 212300Z 2200/2306 VRB02KT 9999 FEW009 BECMG 2209/2212 21010KT BKN012 TEMPO 2215/2221 TS FEW013 FEW020CB BECMG 2221/2223 VRB02KT CAVOK

Orai ataskaitas ir orų prognozės (METAR, TAF).

turimą stotys yra geltonos ir raudonos taškus žemėlapyje.

Perkelti pele per norėdami pamatyti stoties vardą.

Tada spustelėkite, norėdami matyti oro stebėjimo ir prognozės.

Norėdami pakeisti žemėlapį: spustelėkite ant žalios mygtukų su juodo kryžiaus žemyn,; žalią mygtuką su brūkšneliu, jei norite nutolinti; arba žalių rodyklių gretimoms žemėlapius.


METAR-TAF: